sensor_id;sensor_type;location;lat;lon;timestamp;temperature;humidity
10524;DHT22;5310;48.638;9.060;2022-08-20T00:53:25;18.00;99.90
10524;DHT22;5310;48.638;9.060;2022-08-20T00:58:17;18.10;99.90
10524;DHT22;5310;48.638;9.060;2022-08-20T01:05:41;18.20;99.90
10524;DHT22;5310;48.638;9.060;2022-08-20T05:06:26;18.00;99.90
10524;DHT22;5310;48.638;9.060;2022-08-20T06:54:33;19.90;99.90
10524;DHT22;5310;48.638;9.060;2022-08-20T08:30:24;22.40;96.60
10524;DHT22;5310;48.638;9.060;2022-08-20T08:32:50;22.70;95.70
10524;DHT22;5310;48.638;9.060;2022-08-20T08:35:36;22.50;95.90
10524;DHT22;5310;48.638;9.060;2022-08-20T08:38:02;22.70;96.10
10524;DHT22;5310;48.638;9.060;2022-08-20T08:42:53;22.50;95.50
10524;DHT22;5310;48.638;9.060;2022-08-20T08:45:33;22.90;95.50
10524;DHT22;5310;48.638;9.060;2022-08-20T08:47:59;23.20;93.20
10524;DHT22;5310;48.638;9.060;2022-08-20T08:50:29;23.70;92.70
10524;DHT22;5310;48.638;9.060;2022-08-20T08:52:56;23.60;93.10
10524;DHT22;5310;48.638;9.060;2022-08-20T08:55:23;23.70;92.30
10524;DHT22;5310;48.638;9.060;2022-08-20T08:57:49;23.80;92.00
10524;DHT22;5310;48.638;9.060;2022-08-20T09:00:19;24.00;91.70
10524;DHT22;5310;48.638;9.060;2022-08-20T09:05:39;24.50;89.50
10524;DHT22;5310;48.638;9.060;2022-08-20T09:08:08;24.40;90.00
10524;DHT22;5310;48.638;9.060;2022-08-20T09:10:36;24.50;89.20
10524;DHT22;5310;48.638;9.060;2022-08-20T09:13:03;24.70;88.90
10524;DHT22;5310;48.638;9.060;2022-08-20T09:15:29;24.60;88.90
10524;DHT22;5310;48.638;9.060;2022-08-20T09:17:54;24.80;88.20
10524;DHT22;5310;48.638;9.060;2022-08-20T09:20:20;25.00;88.50
10524;DHT22;5310;48.638;9.060;2022-08-20T09:25:11;24.60;87.90
10524;DHT22;5310;48.638;9.060;2022-08-20T09:27:37;24.60;89.20
10524;DHT22;5310;48.638;9.060;2022-08-20T09:30:02;24.80;88.00
10524;DHT22;5310;48.638;9.060;2022-08-20T09:32:28;24.90;88.00
10524;DHT22;5310;48.638;9.060;2022-08-20T09:34:54;24.50;88.50
10524;DHT22;5310;48.638;9.060;2022-08-20T09:37:21;24.50;88.20
10524;DHT22;5310;48.638;9.060;2022-08-20T09:39:46;24.20;89.50
10524;DHT22;5310;48.638;9.060;2022-08-20T09:42:13;24.50;88.90
10524;DHT22;5310;48.638;9.060;2022-08-20T09:44:39;24.50;89.40
10524;DHT22;5310;48.638;9.060;2022-08-20T09:47:05;24.10;90.40
10524;DHT22;5310;48.638;9.060;2022-08-20T09:51:56;23.70;92.10
10524;DHT22;5310;48.638;9.060;2022-08-20T09:54:22;23.80;92.20
10524;DHT22;5310;48.638;9.060;2022-08-20T09:56:52;23.90;91.80
10524;DHT22;5310;48.638;9.060;2022-08-20T09:59:17;24.10;91.70
10524;DHT22;5310;48.638;9.060;2022-08-20T10:01:43;24.60;87.60
10524;DHT22;5310;48.638;9.060;2022-08-20T10:04:08;24.90;86.00
10524;DHT22;5310;48.638;9.060;2022-08-20T10:06:37;24.90;85.20
10524;DHT22;5310;48.638;9.060;2022-08-20T10:09:03;24.80;85.10
10524;DHT22;5310;48.638;9.060;2022-08-20T10:13:55;24.40;85.80
10524;DHT22;5310;48.638;9.060;2022-08-20T10:16:20;24.00;86.30
10524;DHT22;5310;48.638;9.060;2022-08-20T10:18:45;24.10;86.90
10524;DHT22;5310;48.638;9.060;2022-08-20T10:23:39;23.10;89.40
10524;DHT22;5310;48.638;9.060;2022-08-20T10:26:08;22.90;90.70
10524;DHT22;5310;48.638;9.060;2022-08-20T10:28:34;23.10;91.00
10524;DHT22;5310;48.638;9.060;2022-08-20T10:31:00;22.80;91.60
10524;DHT22;5310;48.638;9.060;2022-08-20T10:33:25;22.40;92.60
10524;DHT22;5310;48.638;9.060;2022-08-20T10:35:51;22.00;94.50
10524;DHT22;5310;48.638;9.060;2022-08-20T10:43:08;21.60;94.70
10524;DHT22;5310;48.638;9.060;2022-08-20T10:45:33;21.90;94.90
10524;DHT22;5310;48.638;9.060;2022-08-20T10:50:25;22.60;92.90
10524;DHT22;5310;48.638;9.060;2022-08-20T10:52:50;22.30;92.40
10524;DHT22;5310;48.638;9.060;2022-08-20T10:55:16;22.20;93.60
10524;DHT22;5310;48.638;9.060;2022-08-20T10:57:41;22.30;93.40
10524;DHT22;5310;48.638;9.060;2022-08-20T11:02:34;22.40;93.90
10524;DHT22;5310;48.638;9.060;2022-08-20T11:05:00;22.50;93.50
10524;DHT22;5310;48.638;9.060;2022-08-20T11:07:33;22.40;93.90
10524;DHT22;5310;48.638;9.060;2022-08-20T11:09:59;22.40;94.00
10524;DHT22;5310;48.638;9.060;2022-08-20T11:14:51;22.20;93.70
10524;DHT22;5310;48.638;9.060;2022-08-20T11:17:30;21.90;94.40
10524;DHT22;5310;48.638;9.060;2022-08-20T11:19:56;22.00;94.30
10524;DHT22;5310;48.638;9.060;2022-08-20T11:22:22;22.10;94.30
10524;DHT22;5310;48.638;9.060;2022-08-20T11:24:48;22.10;94.20
10524;DHT22;5310;48.638;9.060;2022-08-20T11:27:33;21.90;94.70
10524;DHT22;5310;48.638;9.060;2022-08-20T11:32:25;21.80;95.40
10524;DHT22;5310;48.638;9.060;2022-08-20T11:34:50;22.00;95.10
10524;DHT22;5310;48.638;9.060;2022-08-20T11:37:16;22.10;95.60
10524;DHT22;5310;48.638;9.060;2022-08-20T11:44:34;22.00;96.40
10524;DHT22;5310;48.638;9.060;2022-08-20T11:47:00;22.00;96.10
10524;DHT22;5310;48.638;9.060;2022-08-20T11:49:31;22.20;96.10
10524;DHT22;5310;48.638;9.060;2022-08-20T11:51:56;21.90;97.10
10524;DHT22;5310;48.638;9.060;2022-08-20T11:54:22;22.00;97.10
10524;DHT22;5310;48.638;9.060;2022-08-20T11:56:47;22.10;96.90
10524;DHT22;5310;48.638;9.060;2022-08-20T11:59:14;22.10;96.20
10524;DHT22;5310;48.638;9.060;2022-08-20T12:01:39;22.50;95.30
10524;DHT22;5310;48.638;9.060;2022-08-20T12:04:05;22.40;93.80
10524;DHT22;5310;48.638;9.060;2022-08-20T12:06:30;22.50;93.70
10524;DHT22;5310;48.638;9.060;2022-08-20T12:08:57;22.20;94.20
10524;DHT22;5310;48.638;9.060;2022-08-20T12:11:22;22.10;94.70
10524;DHT22;5310;48.638;9.060;2022-08-20T12:13:47;22.20;94.50
10524;DHT22;5310;48.638;9.060;2022-08-20T12:16:13;22.40;93.50
10524;DHT22;5310;48.638;9.060;2022-08-20T12:18:39;22.40;94.40
10524;DHT22;5310;48.638;9.060;2022-08-20T12:21:04;22.70;93.50
10524;DHT22;5310;48.638;9.060;2022-08-20T12:23:30;23.10;92.00
10524;DHT22;5310;48.638;9.060;2022-08-20T12:25:55;23.30;91.80
10524;DHT22;5310;48.638;9.060;2022-08-20T12:28:21;22.90;92.50
10524;DHT22;5310;48.638;9.060;2022-08-20T12:33:12;22.90;93.00
10524;DHT22;5310;48.638;9.060;2022-08-20T12:38:04;23.20;92.30
10524;DHT22;5310;48.638;9.060;2022-08-20T12:40:30;23.60;91.30
10524;DHT22;5310;48.638;9.060;2022-08-20T12:42:56;23.70;90.60
10524;DHT22;5310;48.638;9.060;2022-08-20T12:45:21;24.10;89.70
10524;DHT22;5310;48.638;9.060;2022-08-20T12:47:47;24.00;89.80
10524;DHT22;5310;48.638;9.060;2022-08-20T12:50:17;24.10;89.70
10524;DHT22;5310;48.638;9.060;2022-08-20T12:52:42;24.40;88.90
10524;DHT22;5310;48.638;9.060;2022-08-20T12:55:09;24.20;88.30
10524;DHT22;5310;48.638;9.060;2022-08-20T12:57:39;24.20;89.40
10524;DHT22;5310;48.638;9.060;2022-08-20T13:00:07;24.20;88.50
10524;DHT22;5310;48.638;9.060;2022-08-20T13:02:33;24.10;89.50
10524;DHT22;5310;48.638;9.060;2022-08-20T13:07:24;23.30;92.10
10524;DHT22;5310;48.638;9.060;2022-08-20T13:09:49;23.60;92.00
10524;DHT22;5310;48.638;9.060;2022-08-20T13:12:15;23.80;91.10
10524;DHT22;5310;48.638;9.060;2022-08-20T13:14:41;23.60;91.70
10524;DHT22;5310;48.638;9.060;2022-08-20T13:17:06;23.50;91.40
10524;DHT22;5310;48.638;9.060;2022-08-20T13:19:33;23.60;92.00
10524;DHT22;5310;48.638;9.060;2022-08-20T13:21:58;23.70;91.00
10524;DHT22;5310;48.638;9.060;2022-08-20T13:24:24;23.90;88.30
10524;DHT22;5310;48.638;9.060;2022-08-20T13:29:15;23.70;86.70
10524;DHT22;5310;48.638;9.060;2022-08-20T13:31:41;23.30;85.80
10524;DHT22;5310;48.638;9.060;2022-08-20T13:34:07;23.30;85.40
10524;DHT22;5310;48.638;9.060;2022-08-20T13:36:33;23.50;87.00
10524;DHT22;5310;48.638;9.060;2022-08-20T13:38:59;23.60;84.20
10524;DHT22;5310;48.638;9.060;2022-08-20T13:43:50;23.60;85.80
10524;DHT22;5310;48.638;9.060;2022-08-20T13:48:42;24.30;82.50
10524;DHT22;5310;48.638;9.060;2022-08-20T13:51:07;24.60;82.50
10524;DHT22;5310;48.638;9.060;2022-08-20T13:53:33;24.40;82.50
10524;DHT22;5310;48.638;9.060;2022-08-20T13:55:58;24.40;81.50
10524;DHT22;5310;48.638;9.060;2022-08-20T14:00:50;24.60;81.30
10524;DHT22;5310;48.638;9.060;2022-08-20T14:05:41;24.60;80.40
10524;DHT22;5310;48.638;9.060;2022-08-20T14:08:08;24.60;80.70
10524;DHT22;5310;48.638;9.060;2022-08-20T14:10:34;25.10;80.10
10524;DHT22;5310;48.638;9.060;2022-08-20T14:13:00;25.40;85.70
10524;DHT22;5310;48.638;9.060;2022-08-20T14:15:27;25.30;87.20
10524;DHT22;5310;48.638;9.060;2022-08-20T14:17:53;25.30;87.70
10524;DHT22;5310;48.638;9.060;2022-08-20T14:20:20;25.00;88.60
10524;DHT22;5310;48.638;9.060;2022-08-20T14:22:46;25.10;88.20
10524;DHT22;5310;48.638;9.060;2022-08-20T14:25:13;25.00;87.70
10524;DHT22;5310;48.638;9.060;2022-08-20T14:30:05;24.70;90.10
10524;DHT22;5310;48.638;9.060;2022-08-20T14:32:32;24.50;91.00
10524;DHT22;5310;48.638;9.060;2022-08-20T14:34:57;24.60;91.40
10524;DHT22;5310;48.638;9.060;2022-08-20T14:37:24;24.50;91.30
10524;DHT22;5310;48.638;9.060;2022-08-20T14:39:52;24.30;92.20
10524;DHT22;5310;48.638;9.060;2022-08-20T14:42:17;24.20;93.20
10524;DHT22;5310;48.638;9.060;2022-08-20T14:44:43;24.20;93.00
10524;DHT22;5310;48.638;9.060;2022-08-20T14:47:10;24.50;91.90
10524;DHT22;5310;48.638;9.060;2022-08-20T14:52:01;24.40;92.00
10524;DHT22;5310;48.638;9.060;2022-08-20T14:54:26;24.50;90.80
10524;DHT22;5310;48.638;9.060;2022-08-20T14:56:52;24.50;91.20
10524;DHT22;5310;48.638;9.060;2022-08-20T14:59:18;24.60;91.20
10524;DHT22;5310;48.638;9.060;2022-08-20T15:04:09;24.50;91.00
10524;DHT22;5310;48.638;9.060;2022-08-20T15:06:34;24.60;90.60
10524;DHT22;5310;48.638;9.060;2022-08-20T15:09:00;24.70;88.60
10524;DHT22;5310;48.638;9.060;2022-08-20T15:11:25;24.90;88.80
10524;DHT22;5310;48.638;9.060;2022-08-20T15:13:51;24.70;88.90
10524;DHT22;5310;48.638;9.060;2022-08-20T15:16:18;24.90;88.20
10524;DHT22;5310;48.638;9.060;2022-08-20T15:18:43;24.80;87.30
10524;DHT22;5310;48.638;9.060;2022-08-20T15:21:09;24.90;85.20
10524;DHT22;5310;48.638;9.060;2022-08-20T15:23:34;25.10;83.60
10524;DHT22;5310;48.638;9.060;2022-08-20T15:26:00;25.30;81.90
10524;DHT22;5310;48.638;9.060;2022-08-20T15:28:25;25.20;82.40
10524;DHT22;5310;48.638;9.060;2022-08-20T15:33:17;25.20;80.10
10524;DHT22;5310;48.638;9.060;2022-08-20T15:35:42;25.60;76.80
10524;DHT22;5310;48.638;9.060;2022-08-20T15:38:07;25.80;75.60
10524;DHT22;5310;48.638;9.060;2022-08-20T15:43:00;25.50;77.10
10524;DHT22;5310;48.638;9.060;2022-08-20T15:45:26;25.40;78.80
10524;DHT22;5310;48.638;9.060;2022-08-20T15:52:43;25.40;69.60
10524;DHT22;5310;48.638;9.060;2022-08-20T15:55:11;25.40;66.60
10524;DHT22;5310;48.638;9.060;2022-08-20T15:57:44;25.50;67.80
10524;DHT22;5310;48.638;9.060;2022-08-20T16:00:15;25.30;67.50
10524;DHT22;5310;48.638;9.060;2022-08-20T16:10:29;25.10;66.30
10524;DHT22;5310;48.638;9.060;2022-08-20T16:15:28;25.10;68.30
10524;DHT22;5310;48.638;9.060;2022-08-20T16:17:59;25.00;68.40
10524;DHT22;5310;48.638;9.060;2022-08-20T16:20:34;25.00;68.00
10524;DHT22;5310;48.638;9.060;2022-08-20T16:23:02;25.00;67.70
10524;DHT22;5310;48.638;9.060;2022-08-20T16:25:32;25.10;67.70
10524;DHT22;5310;48.638;9.060;2022-08-20T16:33:01;25.00;67.80
10524;DHT22;5310;48.638;9.060;2022-08-20T16:40:23;24.70;67.20
10524;DHT22;5310;48.638;9.060;2022-08-20T16:42:50;24.60;68.10
10524;DHT22;5310;48.638;9.060;2022-08-20T16:45:22;24.40;68.00
10524;DHT22;5310;48.638;9.060;2022-08-20T16:47:48;24.40;68.60
10524;DHT22;5310;48.638;9.060;2022-08-20T16:50:19;24.40;68.30
10524;DHT22;5310;48.638;9.060;2022-08-20T16:52:46;24.40;68.90
10524;DHT22;5310;48.638;9.060;2022-08-20T16:57:37;24.30;68.60
10524;DHT22;5310;48.638;9.060;2022-08-20T17:10:11;24.10;69.00
10524;DHT22;5310;48.638;9.060;2022-08-20T17:12:37;24.00;69.60
10524;DHT22;5310;48.638;9.060;2022-08-20T17:17:31;24.00;69.90
10524;DHT22;5310;48.638;9.060;2022-08-20T17:22:24;23.90;70.20
10524;DHT22;5310;48.638;9.060;2022-08-20T17:27:32;23.70;71.00
10524;DHT22;5310;48.638;9.060;2022-08-20T17:30:05;23.60;71.30
10524;DHT22;5310;48.638;9.060;2022-08-20T17:32:31;23.40;71.60
10524;DHT22;5310;48.638;9.060;2022-08-20T17:34:57;23.40;71.60
10524;DHT22;5310;48.638;9.060;2022-08-20T17:37:24;23.30;71.60
10524;DHT22;5310;48.638;9.060;2022-08-20T17:42:17;23.20;72.20
10524;DHT22;5310;48.638;9.060;2022-08-20T17:44:47;23.10;72.30
10524;DHT22;5310;48.638;9.060;2022-08-20T17:49:44;22.90;73.20
10524;DHT22;5310;48.638;9.060;2022-08-20T17:52:18;22.80;73.40
10524;DHT22;5310;48.638;9.060;2022-08-20T17:54:45;22.70;74.10
10524;DHT22;5310;48.638;9.060;2022-08-20T17:57:13;22.60;74.10
10524;DHT22;5310;48.638;9.060;2022-08-20T18:04:31;22.20;75.20
10524;DHT22;5310;48.638;9.060;2022-08-20T18:12:13;21.80;76.20
10524;DHT22;5310;48.638;9.060;2022-08-20T18:22:27;21.20;78.50
10524;DHT22;5310;48.638;9.060;2022-08-20T18:25:05;21.10;79.10
10524;DHT22;5310;48.638;9.060;2022-08-20T18:27:36;20.90;79.40
10524;DHT22;5310;48.638;9.060;2022-08-20T18:30:10;20.80;79.40
10524;DHT22;5310;48.638;9.060;2022-08-20T18:32:37;20.70;79.20
10524;DHT22;5310;48.638;9.060;2022-08-20T18:35:16;20.50;79.80
10524;DHT22;5310;48.638;9.060;2022-08-20T18:37:43;20.40;80.10
10524;DHT22;5310;48.638;9.060;2022-08-20T18:40:28;20.30;80.40
10524;DHT22;5310;48.638;9.060;2022-08-20T18:42:55;20.30;80.60
10524;DHT22;5310;48.638;9.060;2022-08-20T18:45:31;20.10;81.00
10524;DHT22;5310;48.638;9.060;2022-08-20T18:47:57;20.00;80.90
10524;DHT22;5310;48.638;9.060;2022-08-20T18:53:03;19.90;81.50
10524;DHT22;5310;48.638;9.060;2022-08-20T18:55:33;19.80;81.30
10524;DHT22;5310;48.638;9.060;2022-08-20T19:00:29;19.60;81.80
10524;DHT22;5310;48.638;9.060;2022-08-20T19:05:25;19.30;83.00
10524;DHT22;5310;48.638;9.060;2022-08-20T19:07:51;19.20;83.40
10524;DHT22;5310;48.638;9.060;2022-08-20T19:15:35;18.80;84.90
10524;DHT22;5310;48.638;9.060;2022-08-20T19:20:29;18.70;85.50
10524;DHT22;5310;48.638;9.060;2022-08-20T19:22:58;18.60;85.80
10524;DHT22;5310;48.638;9.060;2022-08-20T19:25:29;18.50;86.30
10524;DHT22;5310;48.638;9.060;2022-08-20T19:27:58;18.40;86.40
10524;DHT22;5310;48.638;9.060;2022-08-20T19:30:29;18.30;87.20
10524;DHT22;5310;48.638;9.060;2022-08-20T19:32:57;18.30;87.20
10524;DHT22;5310;48.638;9.060;2022-08-20T19:35:22;18.30;87.20
10524;DHT22;5310;48.638;9.060;2022-08-20T19:37:48;18.10;87.70
10524;DHT22;5310;48.638;9.060;2022-08-20T19:40:21;18.00;88.20
10524;DHT22;5310;48.638;9.060;2022-08-20T19:42:47;17.90;88.80
10524;DHT22;5310;48.638;9.060;2022-08-20T19:47:40;17.80;89.20
10524;DHT22;5310;48.638;9.060;2022-08-20T19:50:18;17.60;89.70
10524;DHT22;5310;48.638;9.060;2022-08-20T19:52:56;17.60;89.80
10524;DHT22;5310;48.638;9.060;2022-08-20T19:55:27;17.50;90.20
10524;DHT22;5310;48.638;9.060;2022-08-20T19:57:55;17.40;90.60
10524;DHT22;5310;48.638;9.060;2022-08-20T20:00:22;17.30;90.70
10524;DHT22;5310;48.638;9.060;2022-08-20T20:02:47;17.20;90.90
10524;DHT22;5310;48.638;9.060;2022-08-20T20:05:13;17.20;91.30
10524;DHT22;5310;48.638;9.060;2022-08-20T20:10:06;17.10;91.30
10524;DHT22;5310;48.638;9.060;2022-08-20T20:12:32;17.10;91.80
10524;DHT22;5310;48.638;9.060;2022-08-20T20:14:58;17.00;91.60
10524;DHT22;5310;48.638;9.060;2022-08-20T20:17:26;16.90;91.80
10524;DHT22;5310;48.638;9.060;2022-08-20T20:19:57;16.80;92.40
10524;DHT22;5310;48.638;9.060;2022-08-20T20:27:33;16.70;92.60
10524;DHT22;5310;48.638;9.060;2022-08-20T20:32:24;16.60;92.70
10524;DHT22;5310;48.638;9.060;2022-08-20T20:34:52;16.60;92.90
10524;DHT22;5310;48.638;9.060;2022-08-20T20:37:38;16.50;93.00
10524;DHT22;5310;48.638;9.060;2022-08-20T20:40:14;16.40;93.30
10524;DHT22;5310;48.638;9.060;2022-08-20T20:45:16;16.30;93.40
10524;DHT22;5310;48.638;9.060;2022-08-20T20:47:47;16.20;93.90
10524;DHT22;5310;48.638;9.060;2022-08-20T20:50:13;16.20;94.30
10524;DHT22;5310;48.638;9.060;2022-08-20T20:55:08;16.00;95.00
10524;DHT22;5310;48.638;9.060;2022-08-20T20:57:34;15.90;95.40
10524;DHT22;5310;48.638;9.060;2022-08-20T20:59:59;15.80;95.60
10524;DHT22;5310;48.638;9.060;2022-08-20T21:02:25;15.80;95.80
10524;DHT22;5310;48.638;9.060;2022-08-20T21:04:51;15.70;96.20
10524;DHT22;5310;48.638;9.060;2022-08-20T21:07:17;15.60;96.40
10524;DHT22;5310;48.638;9.060;2022-08-20T21:09:43;15.60;96.90
10524;DHT22;5310;48.638;9.060;2022-08-20T21:12:10;15.60;96.90
10524;DHT22;5310;48.638;9.060;2022-08-20T21:14:35;15.50;96.90
10524;DHT22;5310;48.638;9.060;2022-08-20T21:17:02;15.40;97.10
10524;DHT22;5310;48.638;9.060;2022-08-20T21:19:28;15.30;97.40
10524;DHT22;5310;48.638;9.060;2022-08-20T21:24:19;15.20;97.90
10524;DHT22;5310;48.638;9.060;2022-08-20T21:26:45;15.10;98.00
10524;DHT22;5310;48.638;9.060;2022-08-20T21:29:12;15.10;98.10
10524;DHT22;5310;48.638;9.060;2022-08-20T21:31:40;15.10;98.30
10524;DHT22;5310;48.638;9.060;2022-08-20T21:34:05;15.10;98.40
10524;DHT22;5310;48.638;9.060;2022-08-20T21:38:57;14.90;99.10
10524;DHT22;5310;48.638;9.060;2022-08-20T21:41:23;14.80;99.20
10524;DHT22;5310;48.638;9.060;2022-08-20T21:43:48;14.70;99.40
10524;DHT22;5310;48.638;9.060;2022-08-20T21:46:14;14.70;99.50
10524;DHT22;5310;48.638;9.060;2022-08-20T21:48:39;14.70;99.70
10524;DHT22;5310;48.638;9.060;2022-08-20T21:51:05;14.60;99.90
10524;DHT22;5310;48.638;9.060;2022-08-20T21:53:30;14.50;99.90
10524;DHT22;5310;48.638;9.060;2022-08-20T21:58:22;14.40;99.90
10524;DHT22;5310;48.638;9.060;2022-08-20T22:00:55;14.40;99.90
10524;DHT22;5310;48.638;9.060;2022-08-20T22:03:22;14.30;99.90
10524;DHT22;5310;48.638;9.060;2022-08-20T22:05:47;14.30;99.90
10524;DHT22;5310;48.638;9.060;2022-08-20T22:08:13;14.30;99.90
10524;DHT22;5310;48.638;9.060;2022-08-20T22:13:05;14.20;99.90
10524;DHT22;5310;48.638;9.060;2022-08-20T22:15:30;14.20;99.90
10524;DHT22;5310;48.638;9.060;2022-08-20T22:17:55;14.20;99.90
10524;DHT22;5310;48.638;9.060;2022-08-20T22:22:47;14.10;99.90
10524;DHT22;5310;48.638;9.060;2022-08-20T22:25:13;14.00;99.90
10524;DHT22;5310;48.638;9.060;2022-08-20T22:27:38;14.00;99.90
10524;DHT22;5310;48.638;9.060;2022-08-20T22:34:56;13.90;99.90
10524;DHT22;5310;48.638;9.060;2022-08-20T22:37:22;13.80;99.90
10524;DHT22;5310;48.638;9.060;2022-08-20T22:39:48;13.80;99.90
10524;DHT22;5310;48.638;9.060;2022-08-20T22:42:14;13.80;99.90
10524;DHT22;5310;48.638;9.060;2022-08-20T22:44:39;13.70;99.90
10524;DHT22;5310;48.638;9.060;2022-08-20T22:47:05;13.60;99.90
10524;DHT22;5310;48.638;9.060;2022-08-20T22:51:58;13.60;99.90
10524;DHT22;5310;48.638;9.060;2022-08-20T22:54:23;13.50;99.90
10524;DHT22;5310;48.638;9.060;2022-08-20T22:59:15;13.50;99.90
10524;DHT22;5310;48.638;9.060;2022-08-20T23:01:40;13.40;99.90
10524;DHT22;5310;48.638;9.060;2022-08-20T23:06:32;13.30;99.90
10524;DHT22;5310;48.638;9.060;2022-08-20T23:08:57;13.20;99.90
10524;DHT22;5310;48.638;9.060;2022-08-20T23:11:23;13.20;99.90
10524;DHT22;5310;48.638;9.060;2022-08-20T23:13:48;13.10;99.90
10524;DHT22;5310;48.638;9.060;2022-08-20T23:16:14;13.00;99.90
10524;DHT22;5310;48.638;9.060;2022-08-20T23:18:39;13.00;99.90
10524;DHT22;5310;48.638;9.060;2022-08-20T23:23:30;12.90;99.90
10524;DHT22;5310;48.638;9.060;2022-08-20T23:25:56;12.90;99.90
10524;DHT22;5310;48.638;9.060;2022-08-20T23:28:22;13.00;99.90
10524;DHT22;5310;48.638;9.060;2022-08-20T23:33:14;13.00;99.90
10524;DHT22;5310;48.638;9.060;2022-08-20T23:35:40;13.00;99.90
10524;DHT22;5310;48.638;9.060;2022-08-20T23:38:06;12.90;99.90
10524;DHT22;5310;48.638;9.060;2022-08-20T23:42:57;12.90;99.90
10524;DHT22;5310;48.638;9.060;2022-08-20T23:45:23;12.90;99.90
10524;DHT22;5310;48.638;9.060;2022-08-20T23:47:48;12.90;99.90
10524;DHT22;5310;48.638;9.060;2022-08-20T23:50:15;12.80;99.90
10524;DHT22;5310;48.638;9.060;2022-08-20T23:52:41;12.70;99.90
10524;DHT22;5310;48.638;9.060;2022-08-20T23:55:06;12.70;99.90
10524;DHT22;5310;48.638;9.060;2022-08-20T23:57:32;12.60;99.90
10524;DHT22;5310;48.638;9.060;2022-08-20T23:59:57;12.50;99.90
